sensor_id;sensor_type;location;lat;lon;timestamp;temperature;humidity
19906;DHT22;10115;50.906;4.438;2023-01-10T00:01:31;5.60;99.90
19906;DHT22;10115;50.906;4.438;2023-01-10T00:03:56;5.50;99.90
19906;DHT22;10115;50.906;4.438;2023-01-10T00:06:22;5.40;99.90
19906;DHT22;10115;50.906;4.438;2023-01-10T00:08:48;5.40;99.90
19906;DHT22;10115;50.906;4.438;2023-01-10T00:11:14;5.40;99.90
19906;DHT22;10115;50.906;4.438;2023-01-10T00:13:58;5.40;99.90
19906;DHT22;10115;50.906;4.438;2023-01-10T00:16:24;5.40;99.90
19906;DHT22;10115;50.906;4.438;2023-01-10T00:18:50;5.30;99.90
19906;DHT22;10115;50.906;4.438;2023-01-10T00:21:16;5.30;99.90
19906;DHT22;10115;50.906;4.438;2023-01-10T00:23:42;5.40;99.90
19906;DHT22;10115;50.906;4.438;2023-01-10T00:26:08;5.60;99.90
19906;DHT22;10115;50.906;4.438;2023-01-10T00:28:34;5.60;99.90
19906;DHT22;10115;50.906;4.438;2023-01-10T00:31:00;5.70;99.90
19906;DHT22;10115;50.906;4.438;2023-01-10T00:33:34;5.80;99.90
19906;DHT22;10115;50.906;4.438;2023-01-10T00:36:00;5.90;99.90
19906;DHT22;10115;50.906;4.438;2023-01-10T00:38:26;6.00;99.90
19906;DHT22;10115;50.906;4.438;2023-01-10T00:40:52;5.90;99.90
19906;DHT22;10115;50.906;4.438;2023-01-10T00:43:18;6.00;99.90
19906;DHT22;10115;50.906;4.438;2023-01-10T00:46:02;6.10;99.90
19906;DHT22;10115;50.906;4.438;2023-01-10T00:48:28;6.20;99.90
19906;DHT22;10115;50.906;4.438;2023-01-10T00:50:54;6.20;99.90
19906;DHT22;10115;50.906;4.438;2023-01-10T00:53:20;6.20;99.90
19906;DHT22;10115;50.906;4.438;2023-01-10T00:55:46;6.20;99.90
19906;DHT22;10115;50.906;4.438;2023-01-10T00:58:16;6.20;99.90
19906;DHT22;10115;50.906;4.438;2023-01-10T01:00:42;6.20;99.90
19906;DHT22;10115;50.906;4.438;2023-01-10T01:03:11;6.20;99.90
19906;DHT22;10115;50.906;4.438;2023-01-10T01:05:42;6.30;99.90
19906;DHT22;10115;50.906;4.438;2023-01-10T01:08:08;6.30;99.90
19906;DHT22;10115;50.906;4.438;2023-01-10T01:10:34;6.30;99.90
19906;DHT22;10115;50.906;4.438;2023-01-10T01:13:09;6.30;99.90
19906;DHT22;10115;50.906;4.438;2023-01-10T01:15:35;6.30;99.90
19906;DHT22;10115;50.906;4.438;2023-01-10T01:18:02;6.30;99.90
19906;DHT22;10115;50.906;4.438;2023-01-10T01:20:28;6.30;99.90
19906;DHT22;10115;50.906;4.438;2023-01-10T01:22:54;6.30;99.90
19906;DHT22;10115;50.906;4.438;2023-01-10T01:25:20;6.30;99.90
19906;DHT22;10115;50.906;4.438;2023-01-10T01:27:45;6.30;99.90
19906;DHT22;10115;50.906;4.438;2023-01-10T01:30:11;6.30;99.90
19906;DHT22;10115;50.906;4.438;2023-01-10T01:32:37;6.30;99.90
19906;DHT22;10115;50.906;4.438;2023-01-10T01:35:04;6.20;99.90
19906;DHT22;10115;50.906;4.438;2023-01-10T01:37:30;6.20;99.90
19906;DHT22;10115;50.906;4.438;2023-01-10T01:39:56;6.10;99.90
19906;DHT22;10115;50.906;4.438;2023-01-10T01:42:30;6.00;99.90
19906;DHT22;10115;50.906;4.438;2023-01-10T01:50:41;5.90;99.90
19906;DHT22;10115;50.906;4.438;2023-01-10T01:56:02;5.80;99.90
19906;DHT22;10115;50.906;4.438;2023-01-10T01:58:38;5.80;99.90
19906;DHT22;10115;50.906;4.438;2023-01-10T02:01:06;5.70;99.90
19906;DHT22;10115;50.906;4.438;2023-01-10T02:03:32;5.70;99.90
19906;DHT22;10115;50.906;4.438;2023-01-10T02:05:58;5.70;99.90
19906;DHT22;10115;50.906;4.438;2023-01-10T02:08:24;5.70;99.90
19906;DHT22;10115;50.906;4.438;2023-01-10T02:13:25;5.70;99.90
19906;DHT22;10115;50.906;4.438;2023-01-10T02:15:51;5.70;99.90
19906;DHT22;10115;50.906;4.438;2023-01-10T02:18:17;5.70;99.90
19906;DHT22;10115;50.906;4.438;2023-01-10T02:21:02;5.70;99.90
19906;DHT22;10115;50.906;4.438;2023-01-10T02:23:40;5.70;99.90
19906;DHT22;10115;50.906;4.438;2023-01-10T02:42:46;5.40;99.90
19906;DHT22;10115;50.906;4.438;2023-01-10T02:45:37;5.30;99.90
19906;DHT22;10115;50.906;4.438;2023-01-10T02:48:03;5.30;99.90
19906;DHT22;10115;50.906;4.438;2023-01-10T02:52:57;5.20;99.90
19906;DHT22;10115;50.906;4.438;2023-01-10T02:55:38;5.20;99.90
19906;DHT22;10115;50.906;4.438;2023-01-10T03:03:50;5.20;99.90
19906;DHT22;10115;50.906;4.438;2023-01-10T03:09:01;5.30;99.90
19906;DHT22;10115;50.906;4.438;2023-01-10T03:11:29;5.20;99.90
19906;DHT22;10115;50.906;4.438;2023-01-10T03:14:12;5.20;99.90
19906;DHT22;10115;50.906;4.438;2023-01-10T03:16:41;5.20;99.90
19906;DHT22;10115;50.906;4.438;2023-01-10T03:19:12;5.20;99.90
19906;DHT22;10115;50.906;4.438;2023-01-10T03:21:42;5.20;99.90
19906;DHT22;10115;50.906;4.438;2023-01-10T03:24:16;5.20;99.90
19906;DHT22;10115;50.906;4.438;2023-01-10T03:27:00;5.10;99.90
19906;DHT22;10115;50.906;4.438;2023-01-10T03:29:47;5.10;99.90
19906;DHT22;10115;50.906;4.438;2023-01-10T03:32:20;5.10;99.90
19906;DHT22;10115;50.906;4.438;2023-01-10T03:34:47;5.00;99.90
19906;DHT22;10115;50.906;4.438;2023-01-10T03:37:17;5.10;99.90
19906;DHT22;10115;50.906;4.438;2023-01-10T03:40:03;5.10;99.90
19906;DHT22;10115;50.906;4.438;2023-01-10T03:42:52;5.10;99.90
19906;DHT22;10115;50.906;4.438;2023-01-10T03:45:53;5.10;99.90
19906;DHT22;10115;50.906;4.438;2023-01-10T03:48:21;5.20;99.90
19906;DHT22;10115;50.906;4.438;2023-01-10T03:50:48;5.20;99.90
19906;DHT22;10115;50.906;4.438;2023-01-10T03:53:16;5.20;99.90
19906;DHT22;10115;50.906;4.438;2023-01-10T03:55:42;5.10;99.90
19906;DHT22;10115;50.906;4.438;2023-01-10T03:58:09;5.10;99.90
19906;DHT22;10115;50.906;4.438;2023-01-10T04:00:35;5.10;99.90
19906;DHT22;10115;50.906;4.438;2023-01-10T04:03:03;5.10;99.90
19906;DHT22;10115;50.906;4.438;2023-01-10T04:05:29;5.10;99.90
19906;DHT22;10115;50.906;4.438;2023-01-10T04:07:55;5.10;99.90
19906;DHT22;10115;50.906;4.438;2023-01-10T04:10:20;5.10;99.90
19906;DHT22;10115;50.906;4.438;2023-01-10T04:12:46;5.00;99.90
19906;DHT22;10115;50.906;4.438;2023-01-10T04:15:12;5.10;99.90
19906;DHT22;10115;50.906;4.438;2023-01-10T04:17:37;5.10;99.90
19906;DHT22;10115;50.906;4.438;2023-01-10T04:20:03;5.00;99.90
19906;DHT22;10115;50.906;4.438;2023-01-10T04:22:29;5.00;99.90
19906;DHT22;10115;50.906;4.438;2023-01-10T04:24:55;5.00;99.90
19906;DHT22;10115;50.906;4.438;2023-01-10T04:27:20;4.90;99.90
19906;DHT22;10115;50.906;4.438;2023-01-10T04:29:46;4.90;99.90
19906;DHT22;10115;50.906;4.438;2023-01-10T04:32:12;4.90;99.90
19906;DHT22;10115;50.906;4.438;2023-01-10T04:34:38;4.90;99.90
19906;DHT22;10115;50.906;4.438;2023-01-10T04:37:03;4.90;99.90
19906;DHT22;10115;50.906;4.438;2023-01-10T04:39:29;4.80;99.90
19906;DHT22;10115;50.906;4.438;2023-01-10T04:41:55;4.80;99.90
19906;DHT22;10115;50.906;4.438;2023-01-10T04:44:20;4.80;99.90
19906;DHT22;10115;50.906;4.438;2023-01-10T04:46:47;4.80;99.90
19906;DHT22;10115;50.906;4.438;2023-01-10T04:49:12;4.80;99.90
19906;DHT22;10115;50.906;4.438;2023-01-10T04:51:38;4.80;99.90
19906;DHT22;10115;50.906;4.438;2023-01-10T04:54:04;4.90;99.90
19906;DHT22;10115;50.906;4.438;2023-01-10T04:56:29;4.90;99.90
19906;DHT22;10115;50.906;4.438;2023-01-10T04:58:55;5.00;99.90
19906;DHT22;10115;50.906;4.438;2023-01-10T05:01:23;5.00;99.90
19906;DHT22;10115;50.906;4.438;2023-01-10T05:03:51;5.00;99.90
19906;DHT22;10115;50.906;4.438;2023-01-10T05:06:17;5.00;99.90
19906;DHT22;10115;50.906;4.438;2023-01-10T05:08:43;5.00;99.90
19906;DHT22;10115;50.906;4.438;2023-01-10T05:11:09;4.90;99.90
19906;DHT22;10115;50.906;4.438;2023-01-10T05:13:35;5.00;99.90
19906;DHT22;10115;50.906;4.438;2023-01-10T05:16:01;4.90;99.90
19906;DHT22;10115;50.906;4.438;2023-01-10T05:18:28;4.90;99.90
19906;DHT22;10115;50.906;4.438;2023-01-10T05:21:04;4.90;99.90
19906;DHT22;10115;50.906;4.438;2023-01-10T05:23:31;4.90;99.90
19906;DHT22;10115;50.906;4.438;2023-01-10T05:25:56;4.90;99.90
19906;DHT22;10115;50.906;4.438;2023-01-10T05:28:22;5.00;99.90
19906;DHT22;10115;50.906;4.438;2023-01-10T05:30:48;5.00;99.90
19906;DHT22;10115;50.906;4.438;2023-01-10T05:33:14;5.00;99.90
19906;DHT22;10115;50.906;4.438;2023-01-10T05:35:40;5.00;99.90
19906;DHT22;10115;50.906;4.438;2023-01-10T05:38:05;5.10;99.90
19906;DHT22;10115;50.906;4.438;2023-01-10T05:40:31;5.10;99.90
19906;DHT22;10115;50.906;4.438;2023-01-10T05:42:57;5.00;99.90
19906;DHT22;10115;50.906;4.438;2023-01-10T05:45:22;5.00;99.90
19906;DHT22;10115;50.906;4.438;2023-01-10T05:47:48;5.00;99.90
19906;DHT22;10115;50.906;4.438;2023-01-10T05:50:14;5.00;99.90
19906;DHT22;10115;50.906;4.438;2023-01-10T05:52:39;5.00;99.90
19906;DHT22;10115;50.906;4.438;2023-01-10T05:55:05;4.90;99.90
19906;DHT22;10115;50.906;4.438;2023-01-10T05:57:31;5.00;99.90
19906;DHT22;10115;50.906;4.438;2023-01-10T05:59:57;4.90;99.90
19906;DHT22;10115;50.906;4.438;2023-01-10T06:02:22;4.90;99.90
19906;DHT22;10115;50.906;4.438;2023-01-10T06:04:50;4.90;99.90
19906;DHT22;10115;50.906;4.438;2023-01-10T06:07:16;4.90;99.90
19906;DHT22;10115;50.906;4.438;2023-01-10T06:09:42;4.90;99.90
19906;DHT22;10115;50.906;4.438;2023-01-10T06:12:07;5.00;99.90
19906;DHT22;10115;50.906;4.438;2023-01-10T06:14:33;4.90;99.90
19906;DHT22;10115;50.906;4.438;2023-01-10T06:16:59;5.00;99.90
19906;DHT22;10115;50.906;4.438;2023-01-10T06:19:24;4.90;99.90
19906;DHT22;10115;50.906;4.438;2023-01-10T06:21:50;5.00;99.90
19906;DHT22;10115;50.906;4.438;2023-01-10T06:24:16;5.00;99.90
19906;DHT22;10115;50.906;4.438;2023-01-10T06:26:41;4.90;99.90
19906;DHT22;10115;50.906;4.438;2023-01-10T06:29:07;4.90;99.90
19906;DHT22;10115;50.906;4.438;2023-01-10T06:31:33;4.90;99.90
19906;DHT22;10115;50.906;4.438;2023-01-10T06:33:58;4.90;99.90
19906;DHT22;10115;50.906;4.438;2023-01-10T06:36:24;4.80;99.90
19906;DHT22;10115;50.906;4.438;2023-01-10T06:38:49;4.80;99.90
19906;DHT22;10115;50.906;4.438;2023-01-10T06:41:15;4.80;99.90
19906;DHT22;10115;50.906;4.438;2023-01-10T06:43:42;4.70;99.90
19906;DHT22;10115;50.906;4.438;2023-01-10T06:46:10;4.70;99.90
19906;DHT22;10115;50.906;4.438;2023-01-10T06:48:36;4.80;99.90
19906;DHT22;10115;50.906;4.438;2023-01-10T06:51:03;4.80;99.90
19906;DHT22;10115;50.906;4.438;2023-01-10T06:53:29;4.70;99.90
19906;DHT22;10115;50.906;4.438;2023-01-10T06:55:55;4.70;99.90
19906;DHT22;10115;50.906;4.438;2023-01-10T06:58:22;4.70;99.90
19906;DHT22;10115;50.906;4.438;2023-01-10T07:00:48;4.70;99.90
19906;DHT22;10115;50.906;4.438;2023-01-10T07:03:14;4.70;99.90
19906;DHT22;10115;50.906;4.438;2023-01-10T07:05:39;4.60;99.90
19906;DHT22;10115;50.906;4.438;2023-01-10T07:08:05;4.70;99.90
19906;DHT22;10115;50.906;4.438;2023-01-10T07:10:31;4.70;99.90
19906;DHT22;10115;50.906;4.438;2023-01-10T07:12:57;4.90;99.90
19906;DHT22;10115;50.906;4.438;2023-01-10T07:15:24;4.80;99.90
19906;DHT22;10115;50.906;4.438;2023-01-10T07:17:49;4.80;99.90
19906;DHT22;10115;50.906;4.438;2023-01-10T07:20:16;4.70;99.90
19906;DHT22;10115;50.906;4.438;2023-01-10T07:22:41;4.70;99.90
19906;DHT22;10115;50.906;4.438;2023-01-10T07:25:07;4.70;99.90
19906;DHT22;10115;50.906;4.438;2023-01-10T07:27:33;4.70;99.90
19906;DHT22;10115;50.906;4.438;2023-01-10T07:29:59;4.70;99.90
19906;DHT22;10115;50.906;4.438;2023-01-10T07:32:25;4.70;99.90
19906;DHT22;10115;50.906;4.438;2023-01-10T07:34:51;4.70;99.90
19906;DHT22;10115;50.906;4.438;2023-01-10T07:37:17;4.70;99.90
19906;DHT22;10115;50.906;4.438;2023-01-10T07:39:42;4.70;99.90
19906;DHT22;10115;50.906;4.438;2023-01-10T07:42:08;4.70;99.90
19906;DHT22;10115;50.906;4.438;2023-01-10T07:44:34;4.80;99.90
19906;DHT22;10115;50.906;4.438;2023-01-10T07:47:00;4.70;99.90
19906;DHT22;10115;50.906;4.438;2023-01-10T07:49:26;4.70;99.90
19906;DHT22;10115;50.906;4.438;2023-01-10T07:51:51;4.70;99.90
19906;DHT22;10115;50.906;4.438;2023-01-10T07:54:17;4.80;99.90
19906;DHT22;10115;50.906;4.438;2023-01-10T07:56:43;4.70;99.90
19906;DHT22;10115;50.906;4.438;2023-01-10T07:59:09;4.70;99.90
19906;DHT22;10115;50.906;4.438;2023-01-10T08:01:34;4.80;99.90
19906;DHT22;10115;50.906;4.438;2023-01-10T08:04:00;4.90;99.90
19906;DHT22;10115;50.906;4.438;2023-01-10T08:06:26;4.90;99.90
19906;DHT22;10115;50.906;4.438;2023-01-10T08:08:51;5.00;99.90
19906;DHT22;10115;50.906;4.438;2023-01-10T08:11:17;5.00;99.90
19906;DHT22;10115;50.906;4.438;2023-01-10T08:13:43;5.00;99.90
19906;DHT22;10115;50.906;4.438;2023-01-10T08:16:08;5.00;99.90
19906;DHT22;10115;50.906;4.438;2023-01-10T08:18:34;5.10;99.90
19906;DHT22;10115;50.906;4.438;2023-01-10T08:21:00;5.20;99.90
19906;DHT22;10115;50.906;4.438;2023-01-10T08:23:26;5.30;99.90
19906;DHT22;10115;50.906;4.438;2023-01-10T08:25:52;5.30;99.90
19906;DHT22;10115;50.906;4.438;2023-01-10T08:28:18;5.40;99.90
19906;DHT22;10115;50.906;4.438;2023-01-10T08:30:44;5.40;99.90
19906;DHT22;10115;50.906;4.438;2023-01-10T08:33:10;5.40;99.90
19906;DHT22;10115;50.906;4.438;2023-01-10T08:35:41;5.50;99.90
19906;DHT22;10115;50.906;4.438;2023-01-10T08:38:08;5.50;99.90
19906;DHT22;10115;50.906;4.438;2023-01-10T08:40:34;5.60;99.90
19906;DHT22;10115;50.906;4.438;2023-01-10T08:43:08;5.80;99.90
19906;DHT22;10115;50.906;4.438;2023-01-10T08:45:34;5.80;99.90
19906;DHT22;10115;50.906;4.438;2023-01-10T08:48:02;5.80;99.90
19906;DHT22;10115;50.906;4.438;2023-01-10T08:50:28;5.80;99.90
19906;DHT22;10115;50.906;4.438;2023-01-10T08:52:56;5.90;99.90
19906;DHT22;10115;50.906;4.438;2023-01-10T08:55:22;5.90;99.90
19906;DHT22;10115;50.906;4.438;2023-01-10T08:57:48;5.90;99.90
19906;DHT22;10115;50.906;4.438;2023-01-10T09:00:14;5.80;99.90
19906;DHT22;10115;50.906;4.438;2023-01-10T09:02:40;5.80;99.90
19906;DHT22;10115;50.906;4.438;2023-01-10T09:05:06;5.80;99.90
19906;DHT22;10115;50.906;4.438;2023-01-10T09:07:32;5.80;99.90
19906;DHT22;10115;50.906;4.438;2023-01-10T09:09:58;5.70;99.90
19906;DHT22;10115;50.906;4.438;2023-01-10T09:12:23;5.80;99.90
19906;DHT22;10115;50.906;4.438;2023-01-10T09:15:08;5.90;99.90
19906;DHT22;10115;50.906;4.438;2023-01-10T09:17:34;6.00;99.90
19906;DHT22;10115;50.906;4.438;2023-01-10T09:19:59;6.00;99.90
19906;DHT22;10115;50.906;4.438;2023-01-10T09:22:25;6.10;99.90
19906;DHT22;10115;50.906;4.438;2023-01-10T09:24:51;6.20;99.90
19906;DHT22;10115;50.906;4.438;2023-01-10T09:27:17;6.30;99.90
19906;DHT22;10115;50.906;4.438;2023-01-10T09:29:43;6.30;99.90
19906;DHT22;10115;50.906;4.438;2023-01-10T09:32:08;6.40;99.90
19906;DHT22;10115;50.906;4.438;2023-01-10T09:34:34;6.50;99.90
19906;DHT22;10115;50.906;4.438;2023-01-10T09:37:00;6.40;99.90
19906;DHT22;10115;50.906;4.438;2023-01-10T09:39:25;6.50;99.90
19906;DHT22;10115;50.906;4.438;2023-01-10T09:50:23;6.90;99.90
19906;DHT22;10115;50.906;4.438;2023-01-10T09:53:01;6.80;99.90
19906;DHT22;10115;50.906;4.438;2023-01-10T09:55:31;6.90;99.90
19906;DHT22;10115;50.906;4.438;2023-01-10T09:58:00;6.70;99.90
19906;DHT22;10115;50.906;4.438;2023-01-10T10:00:38;6.70;99.90
19906;DHT22;10115;50.906;4.438;2023-01-10T10:03:28;6.70;99.90
19906;DHT22;10115;50.906;4.438;2023-01-10T10:05:58;6.70;99.90
19906;DHT22;10115;50.906;4.438;2023-01-10T10:08:23;6.80;99.90
19906;DHT22;10115;50.906;4.438;2023-01-10T10:10:59;6.80;99.90
19906;DHT22;10115;50.906;4.438;2023-01-10T10:19:22;7.10;99.90
19906;DHT22;10115;50.906;4.438;2023-01-10T10:27:29;7.60;99.90
19906;DHT22;10115;50.906;4.438;2023-01-10T10:30:16;7.40;99.90
19906;DHT22;10115;50.906;4.438;2023-01-10T10:38:42;7.40;99.90
19906;DHT22;10115;50.906;4.438;2023-01-10T10:40:43;7.50;99.90
19906;DHT22;10115;50.906;4.438;2023-01-10T10:43:19;7.70;99.90
19906;DHT22;10115;50.906;4.438;2023-01-10T10:45:53;7.80;99.90
19906;DHT22;10115;50.906;4.438;2023-01-10T10:48:23;7.60;99.90
19906;DHT22;10115;50.906;4.438;2023-01-10T10:53:18;7.80;99.90
19906;DHT22;10115;50.906;4.438;2023-01-10T10:55:44;7.90;99.90
19906;DHT22;10115;50.906;4.438;2023-01-10T10:58:11;8.00;99.90
19906;DHT22;10115;50.906;4.438;2023-01-10T11:00:39;8.10;99.90
19906;DHT22;10115;50.906;4.438;2023-01-10T11:03:25;8.00;99.90
19906;DHT22;10115;50.906;4.438;2023-01-10T11:05:52;8.20;99.90
19906;DHT22;10115;50.906;4.438;2023-01-10T11:08:19;8.00;99.90
19906;DHT22;10115;50.906;4.438;2023-01-10T11:10:58;8.10;99.90
19906;DHT22;10115;50.906;4.438;2023-01-10T11:15:58;8.40;99.90
19906;DHT22;10115;50.906;4.438;2023-01-10T11:18:27;8.00;99.90
19906;DHT22;10115;50.906;4.438;2023-01-10T11:21:19;8.10;99.90
19906;DHT22;10115;50.906;4.438;2023-01-10T11:23:55;8.10;99.90
19906;DHT22;10115;50.906;4.438;2023-01-10T11:26:35;8.10;99.90
19906;DHT22;10115;50.906;4.438;2023-01-10T11:29:41;8.10;99.90
19906;DHT22;10115;50.906;4.438;2023-01-10T11:32:13;7.90;99.90
19906;DHT22;10115;50.906;4.438;2023-01-10T11:35:02;8.00;99.90
19906;DHT22;10115;50.906;4.438;2023-01-10T11:37:32;8.00;99.90
19906;DHT22;10115;50.906;4.438;2023-01-10T11:42:39;8.00;99.90
19906;DHT22;10115;50.906;4.438;2023-01-10T11:50:30;8.30;99.90
19906;DHT22;10115;50.906;4.438;2023-01-10T11:52:57;8.10;99.90
19906;DHT22;10115;50.906;4.438;2023-01-10T11:55:31;8.20;99.90
19906;DHT22;10115;50.906;4.438;2023-01-10T11:58:08;8.40;99.90
19906;DHT22;10115;50.906;4.438;2023-01-10T12:00:43;8.40;99.90
19906;DHT22;10115;50.906;4.438;2023-01-10T12:03:27;8.40;99.90
19906;DHT22;10115;50.906;4.438;2023-01-10T12:05:57;8.50;99.90
19906;DHT22;10115;50.906;4.438;2023-01-10T12:08:34;8.50;99.90
19906;DHT22;10115;50.906;4.438;2023-01-10T12:13:45;8.80;99.90
19906;DHT22;10115;50.906;4.438;2023-01-10T12:16:29;8.80;99.90
19906;DHT22;10115;50.906;4.438;2023-01-10T12:18:57;8.80;99.90
19906;DHT22;10115;50.906;4.438;2023-01-10T12:21:39;8.70;99.90
19906;DHT22;10115;50.906;4.438;2023-01-10T12:24:15;8.80;99.90
19906;DHT22;10115;50.906;4.438;2023-01-10T12:26:41;8.60;99.90
19906;DHT22;10115;50.906;4.438;2023-01-10T12:29:14;8.60;99.90
19906;DHT22;10115;50.906;4.438;2023-01-10T12:31:40;8.50;99.90
19906;DHT22;10115;50.906;4.438;2023-01-10T12:34:19;8.50;99.90
19906;DHT22;10115;50.906;4.438;2023-01-10T12:37:00;8.40;99.90
19906;DHT22;10115;50.906;4.438;2023-01-10T12:39:42;8.40;99.90
19906;DHT22;10115;50.906;4.438;2023-01-10T12:42:23;8.50;99.90
19906;DHT22;10115;50.906;4.438;2023-01-10T12:45:25;8.40;99.90
19906;DHT22;10115;50.906;4.438;2023-01-10T12:48:03;8.40;99.90
19906;DHT22;10115;50.906;4.438;2023-01-10T12:50:36;8.20;99.90
19906;DHT22;10115;50.906;4.438;2023-01-10T12:53:31;8.10;99.90
19906;DHT22;10115;50.906;4.438;2023-01-10T12:56:05;8.10;99.90
19906;DHT22;10115;50.906;4.438;2023-01-10T12:58:47;8.00;99.90
19906;DHT22;10115;50.906;4.438;2023-01-10T13:01:16;8.00;99.90
19906;DHT22;10115;50.906;4.438;2023-01-10T13:03:45;8.00;99.90
19906;DHT22;10115;50.906;4.438;2023-01-10T13:06:30;8.00;99.90
19906;DHT22;10115;50.906;4.438;2023-01-10T13:08:59;7.90;99.90
19906;DHT22;10115;50.906;4.438;2023-01-10T13:11:31;7.90;99.90
19906;DHT22;10115;50.906;4.438;2023-01-10T13:14:01;7.90;99.90
19906;DHT22;10115;50.906;4.438;2023-01-10T13:21:34;8.00;99.90
19906;DHT22;10115;50.906;4.438;2023-01-10T13:26:54;7.90;99.90
19906;DHT22;10115;50.906;4.438;2023-01-10T13:29:37;7.80;99.90
19906;DHT22;10115;50.906;4.438;2023-01-10T13:34:46;7.60;99.90
19906;DHT22;10115;50.906;4.438;2023-01-10T13:37:21;7.60;99.90
19906;DHT22;10115;50.906;4.438;2023-01-10T13:39:56;7.50;99.90
19906;DHT22;10115;50.906;4.438;2023-01-10T13:42:36;7.50;99.90
19906;DHT22;10115;50.906;4.438;2023-01-10T13:45:29;7.70;99.90
19906;DHT22;10115;50.906;4.438;2023-01-10T13:48:01;7.60;99.90
19906;DHT22;10115;50.906;4.438;2023-01-10T13:57:56;7.40;99.90
19906;DHT22;10115;50.906;4.438;2023-01-10T14:00:26;7.40;99.90
19906;DHT22;10115;50.906;4.438;2023-01-10T14:16:48;7.10;99.90
19906;DHT22;10115;50.906;4.438;2023-01-10T14:19:41;7.10;99.90
19906;DHT22;10115;50.906;4.438;2023-01-10T14:22:39;7.10;99.90
19906;DHT22;10115;50.906;4.438;2023-01-10T14:25:18;7.00;99.90
19906;DHT22;10115;50.906;4.438;2023-01-10T14:27:47;7.00;99.90
19906;DHT22;10115;50.906;4.438;2023-01-10T14:30:34;6.90;99.90
19906;DHT22;10115;50.906;4.438;2023-01-10T14:33:19;7.00;99.90
19906;DHT22;10115;50.906;4.438;2023-01-10T14:35:50;6.90;99.90
19906;DHT22;10115;50.906;4.438;2023-01-10T14:38:26;7.00;99.90
19906;DHT22;10115;50.906;4.438;2023-01-10T14:41:11;7.00;99.90
19906;DHT22;10115;50.906;4.438;2023-01-10T14:43:43;7.00;99.90
19906;DHT22;10115;50.906;4.438;2023-01-10T14:46:19;6.90;99.90
19906;DHT22;10115;50.906;4.438;2023-01-10T14:48:50;6.90;99.90
19906;DHT22;10115;50.906;4.438;2023-01-10T14:51:19;6.90;99.90
19906;DHT22;10115;50.906;4.438;2023-01-10T14:54:12;7.00;99.90
19906;DHT22;10115;50.906;4.438;2023-01-10T14:56:51;7.00;99.90
19906;DHT22;10115;50.906;4.438;2023-01-10T14:59:27;7.00;99.90
19906;DHT22;10115;50.906;4.438;2023-01-10T15:02:01;7.10;99.90
19906;DHT22;10115;50.906;4.438;2023-01-10T15:04:32;7.00;99.90
19906;DHT22;10115;50.906;4.438;2023-01-10T15:07:08;7.10;99.90
19906;DHT22;10115;50.906;4.438;2023-01-10T15:09:34;7.10;99.90
19906;DHT22;10115;50.906;4.438;2023-01-10T15:12:03;7.10;99.90
19906;DHT22;10115;50.906;4.438;2023-01-10T15:14:31;7.00;99.90
19906;DHT22;10115;50.906;4.438;2023-01-10T15:17:00;6.90;99.90
19906;DHT22;10115;50.906;4.438;2023-01-10T15:19:31;7.00;99.90
19906;DHT22;10115;50.906;4.438;2023-01-10T15:21:58;7.00;99.90
19906;DHT22;10115;50.906;4.438;2023-01-10T15:24:35;7.10;99.90
19906;DHT22;10115;50.906;4.438;2023-01-10T15:27:05;7.10;99.90
19906;DHT22;10115;50.906;4.438;2023-01-10T15:29:33;7.10;99.90
19906;DHT22;10115;50.906;4.438;2023-01-10T15:32:10;7.00;99.90
19906;DHT22;10115;50.906;4.438;2023-01-10T15:34:37;7.00;99.90
19906;DHT22;10115;50.906;4.438;2023-01-10T15:37:05;7.10;99.90
19906;DHT22;10115;50.906;4.438;2023-01-10T15:39:34;7.10;99.90
19906;DHT22;10115;50.906;4.438;2023-01-10T15:42:05;7.10;99.90
19906;DHT22;10115;50.906;4.438;2023-01-10T15:44:36;7.10;99.90
19906;DHT22;10115;50.906;4.438;2023-01-10T15:47:04;7.10;99.90
19906;DHT22;10115;50.906;4.438;2023-01-10T15:49:30;7.10;99.90
19906;DHT22;10115;50.906;4.438;2023-01-10T15:51:56;7.10;99.90
19906;DHT22;10115;50.906;4.438;2023-01-10T15:57:01;7.10;99.90
19906;DHT22;10115;50.906;4.438;2023-01-10T15:59:31;7.10;99.90
19906;DHT22;10115;50.906;4.438;2023-01-10T16:04:54;7.00;99.90
19906;DHT22;10115;50.906;4.438;2023-01-10T16:07:32;7.10;99.90
19906;DHT22;10115;50.906;4.438;2023-01-10T16:10:02;7.00;99.90
19906;DHT22;10115;50.906;4.438;2023-01-10T16:15:24;7.00;99.90
19906;DHT22;10115;50.906;4.438;2023-01-10T16:17:51;7.10;99.90
19906;DHT22;10115;50.906;4.438;2023-01-10T16:20:19;7.10;99.90
19906;DHT22;10115;50.906;4.438;2023-01-10T16:22:46;7.10;99.90
19906;DHT22;10115;50.906;4.438;2023-01-10T16:25:14;7.10;99.90
19906;DHT22;10115;50.906;4.438;2023-01-10T16:27:40;7.20;99.90
19906;DHT22;10115;50.906;4.438;2023-01-10T16:30:12;7.20;99.90
19906;DHT22;10115;50.906;4.438;2023-01-10T16:32:38;7.30;99.90
19906;DHT22;10115;50.906;4.438;2023-01-10T16:35:04;7.30;99.90
19906;DHT22;10115;50.906;4.438;2023-01-10T16:37:30;7.30;99.90
19906;DHT22;10115;50.906;4.438;2023-01-10T16:39:56;7.40;99.90
19906;DHT22;10115;50.906;4.438;2023-01-10T16:42:21;7.40;99.90
19906;DHT22;10115;50.906;4.438;2023-01-10T16:45:06;7.50;99.90
19906;DHT22;10115;50.906;4.438;2023-01-10T16:47:31;7.50;99.90
19906;DHT22;10115;50.906;4.438;2023-01-10T16:49:57;7.60;99.90
19906;DHT22;10115;50.906;4.438;2023-01-10T16:52:23;7.60;99.90
19906;DHT22;10115;50.906;4.438;2023-01-10T16:54:48;7.60;99.90
19906;DHT22;10115;50.906;4.438;2023-01-10T16:57:14;7.70;99.90
19906;DHT22;10115;50.906;4.438;2023-01-10T16:59:42;7.80;99.90
19906;DHT22;10115;50.906;4.438;2023-01-10T17:02:15;7.80;99.90
19906;DHT22;10115;50.906;4.438;2023-01-10T17:04:42;7.80;99.90
19906;DHT22;10115;50.906;4.438;2023-01-10T17:07:09;7.80;99.90
19906;DHT22;10115;50.906;4.438;2023-01-10T17:09:36;7.90;99.90
19906;DHT22;10115;50.906;4.438;2023-01-10T17:12:06;7.80;99.90
19906;DHT22;10115;50.906;4.438;2023-01-10T17:14:35;7.80;99.90
19906;DHT22;10115;50.906;4.438;2023-01-10T17:17:02;7.90;99.90
19906;DHT22;10115;50.906;4.438;2023-01-10T17:19:28;8.00;99.90
19906;DHT22;10115;50.906;4.438;2023-01-10T17:21:54;7.90;99.90
19906;DHT22;10115;50.906;4.438;2023-01-10T17:24:19;8.00;99.90
19906;DHT22;10115;50.906;4.438;2023-01-10T17:26:45;8.00;99.90
19906;DHT22;10115;50.906;4.438;2023-01-10T17:29:11;7.90;99.90
19906;DHT22;10115;50.906;4.438;2023-01-10T17:31:36;8.00;99.90
19906;DHT22;10115;50.906;4.438;2023-01-10T17:34:02;8.10;99.90
19906;DHT22;10115;50.906;4.438;2023-01-10T17:36:28;8.10;99.90
19906;DHT22;10115;50.906;4.438;2023-01-10T17:38:56;8.10;99.90
19906;DHT22;10115;50.906;4.438;2023-01-10T17:41:22;8.20;99.90
19906;DHT22;10115;50.906;4.438;2023-01-10T17:43:48;8.30;99.90
19906;DHT22;10115;50.906;4.438;2023-01-10T17:46:14;8.30;99.90
19906;DHT22;10115;50.906;4.438;2023-01-10T17:48:43;8.30;99.90
19906;DHT22;10115;50.906;4.438;2023-01-10T17:51:09;8.30;99.90
19906;DHT22;10115;50.906;4.438;2023-01-10T17:53:38;8.40;99.90
19906;DHT22;10115;50.906;4.438;2023-01-10T17:56:04;8.30;99.90
19906;DHT22;10115;50.906;4.438;2023-01-10T17:58:31;8.30;99.90
19906;DHT22;10115;50.906;4.438;2023-01-10T18:00:56;8.30;99.90